sensor_id;sensor_type;location;lat;lon;timestamp;pressure;altitude;pressure_sealevel;temperature;humidity
61880;BME280;47817;52.798;27.544;2023-06-22T10:31:48;1026.1;;;9.3;63.9
61880;BME280;47817;52.798;27.544;2023-06-22T10:37:24;1023.6;;;31.6;35.6
61880;BME280;47817;52.798;27.544;2023-06-22T10:42:42;1023.5;;;32.4;35.4
61880;BME280;47817;52.798;27.544;2023-06-22T10:46:48;1023.5;;;33.4;33.8
61880;BME280;47817;52.798;27.544;2023-06-22T10:52:06;1023.5;;;33.8;32.1
61880;BME280;47817;52.798;27.544;2023-06-22T10:57:42;1023.4;;;34.1;31.4
61880;BME280;47817;52.798;27.544;2023-06-22T11:02:40;1023.3;;;34;31.2
61880;BME280;47817;52.798;27.544;2023-06-22T11:07:12;1023.3;;;34;30.2
61880;BME280;47817;52.798;27.544;2023-06-22T11:12:20;1023.3;;;33.7;30
61880;BME280;47817;52.798;27.544;2023-06-22T11:17:42;1023.2;;;34.1;29.8
61880;BME280;47817;52.798;27.544;2023-06-22T11:21:48;1023.2;;;35;29.4
61880;BME280;47817;52.798;27.544;2023-06-22T11:26:48;1023.1;;;35.6;28.6
61880;BME280;47817;52.798;27.544;2023-06-22T11:32:23;1023.1;;;35.8;28.3
61880;BME280;47817;52.798;27.544;2023-06-22T11:37:40;1023;;;36.3;27.7
61880;BME280;47817;52.798;27.544;2023-06-22T11:42:22;1023.1;;;36;27.6
61880;BME280;47817;52.798;27.544;2023-06-22T11:47:06;1023;;;35;28.2
61880;BME280;47817;52.798;27.544;2023-06-22T11:52:39;1022.9;;;34.8;27.9
61880;BME280;47817;52.798;27.544;2023-06-22T11:56:48;1022.9;;;34.6;27.6
61880;BME280;47817;52.798;27.544;2023-06-22T12:02:40;1022.9;;;34.6;27.9
61880;BME280;47817;52.798;27.544;2023-06-22T12:07:12;1022.9;;;35.2;27.7
61880;BME280;47817;52.798;27.544;2023-06-22T12:12:40;1022.9;;;36.3;26.5
61880;BME280;47817;52.798;27.544;2023-06-22T12:17:28;1022.9;;;36.6;26
61880;BME280;47817;52.798;27.544;2023-06-22T12:22:22;1022.9;;;36;26.4
61880;BME280;47817;52.798;27.544;2023-06-22T12:26:56;1022.9;;;35.7;27.3
61880;BME280;47817;52.798;27.544;2023-06-22T12:31:48;1023;;;35;28.7
61880;BME280;47817;52.798;27.544;2023-06-22T12:37:40;1023;;;34.1;29.6
61880;BME280;47817;52.798;27.544;2023-06-22T12:42:06;1022.9;;;33.9;29.7
61880;BME280;47817;52.798;27.544;2023-06-22T12:47:12;1022.9;;;33.8;29.8
61880;BME280;47817;52.798;27.544;2023-06-22T12:52:40;1022.9;;;33.8;30.1
61880;BME280;47817;52.798;27.544;2023-06-22T12:57:42;1022.8;;;34.2;29.8
61880;BME280;47817;52.798;27.544;2023-06-22T13:01:56;1022.8;;;34.6;29.5
61880;BME280;47817;52.798;27.544;2023-06-22T13:06:48;1022.8;;;34.9;29.3
61880;BME280;47817;52.798;27.544;2023-06-22T13:12:19;1022.8;;;34.5;29.6
61880;BME280;47817;52.798;27.544;2023-06-22T13:17:32;1022.8;;;34.2;30
61880;BME280;47817;52.798;27.544;2023-06-22T13:22:25;1022.7;;;34.1;30.4
61880;BME280;47817;52.798;27.544;2023-06-22T13:26:56;1022.8;;;34.1;30.7
61880;BME280;47817;52.798;27.544;2023-06-22T13:32:42;1022.8;;;33.9;31.1
61880;BME280;47817;52.798;27.544;2023-06-22T13:36:48;1022.7;;;33.8;31.4
61880;BME280;47817;52.798;27.544;2023-06-22T13:42:16;1022.8;;;33.5;31.8
61880;BME280;47817;52.798;27.544;2023-06-22T13:47:40;1022.8;;;33.2;32.6
61880;BME280;47817;52.798;27.544;2023-06-22T13:52:30;1022.9;;;33;33
61880;BME280;47817;52.798;27.544;2023-06-22T13:57:10;1022.9;;;32.4;32.8
61880;BME280;47817;52.798;27.544;2023-06-22T14:01:56;1022.9;;;31.9;32.8
61880;BME280;47817;52.798;27.544;2023-06-22T14:06:56;1022.9;;;31.5;33.4
61880;BME280;47817;52.798;27.544;2023-06-22T14:11:56;1022.9;;;31.2;34.2
61880;BME280;47817;52.798;27.544;2023-06-22T14:17:14;1022.9;;;30.8;35.3
61880;BME280;47817;52.798;27.544;2023-06-22T14:22:40;1022.9;;;30.6;36.2
61880;BME280;47817;52.798;27.544;2023-06-22T14:27:08;1022.9;;;30.4;37.1
61880;BME280;47817;52.798;27.544;2023-06-22T14:32:42;1022.8;;;30.4;37.9
61880;BME280;47817;52.798;27.544;2023-06-22T14:37:06;1022.7;;;30.2;38.5
61880;BME280;47817;52.798;27.544;2023-06-22T14:41:58;1022.7;;;30.1;37.7
61880;BME280;47817;52.798;27.544;2023-06-22T14:46:56;1022.7;;;30.1;37.4
61880;BME280;47817;52.798;27.544;2023-06-22T14:51:48;1022.6;;;30;37.4
61880;BME280;47817;52.798;27.544;2023-06-22T14:57:12;1022.6;;;29.8;37.6
61880;BME280;47817;52.798;27.544;2023-06-22T15:02:20;1022.5;;;29.7;37.5
61880;BME280;47817;52.798;27.544;2023-06-22T15:07:22;1022.4;;;29.6;37.2
61880;BME280;47817;52.798;27.544;2023-06-22T15:12:06;1022.4;;;29.5;36.7
61880;BME280;47817;52.798;27.544;2023-06-22T15:17:06;1022.3;;;29.5;36.3
61880;BME280;47817;52.798;27.544;2023-06-22T15:22:40;1022.3;;;29.7;35.8
61880;BME280;47817;52.798;27.544;2023-06-22T15:27:28;1022.3;;;29.7;35.8
61880;BME280;47817;52.798;27.544;2023-06-22T15:32:10;1022.3;;;29.6;35.8
61880;BME280;47817;52.798;27.544;2023-06-22T15:37:20;1022.2;;;29.7;35.8
61880;BME280;47817;52.798;27.544;2023-06-22T15:42:40;1022.1;;;29.8;35.7
61880;BME280;47817;52.798;27.544;2023-06-22T15:46:56;1022;;;29.8;35.8
61880;BME280;47817;52.798;27.544;2023-06-22T15:51:58;1022;;;29.7;35.9
61880;BME280;47817;52.798;27.544;2023-06-22T15:57:26;1021.9;;;29.9;35.9
61880;BME280;47817;52.798;27.544;2023-06-22T16:02:40;1021.9;;;30;35.8
61880;BME280;47817;52.798;27.544;2023-06-22T16:07:42;1021.8;;;30.1;35.9
61880;BME280;47817;52.798;27.544;2023-06-22T16:12:22;1021.8;;;30.1;36.2
61880;BME280;47817;52.798;27.544;2023-06-22T16:17:43;1021.8;;;30.2;36.2
61880;BME280;47817;52.798;27.544;2023-06-22T16:21:48;1021.8;;;30.6;35.8
61880;BME280;47817;52.798;27.544;2023-06-22T16:27:43;1021.6;;;31.1;35.4
61880;BME280;47817;52.798;27.544;2023-06-22T16:31:48;1021.6;;;31.6;35
61880;BME280;47817;52.798;27.544;2023-06-22T16:37:40;1021.6;;;32.5;34
61880;BME280;47817;52.798;27.544;2023-06-22T16:42:32;1021.6;;;32.5;34
61880;BME280;47817;52.798;27.544;2023-06-22T16:47:26;1021.6;;;33.1;33.5
61880;BME280;47817;52.798;27.544;2023-06-22T16:51:48;1021.6;;;34.4;32
61880;BME280;47817;52.798;27.544;2023-06-22T16:56:48;1021.6;;;34.2;32
61880;BME280;47817;52.798;27.544;2023-06-22T17:02:42;1021.7;;;32.6;34
61880;BME280;47817;52.798;27.544;2023-06-22T17:06:51;1021.7;;;31.8;34.9
61880;BME280;47817;52.798;27.544;2023-06-22T17:11:50;1021.6;;;31.4;35.5
61880;BME280;47817;52.798;27.544;2023-06-22T17:17:22;1021.5;;;31;36.3
61880;BME280;47817;52.798;27.544;2023-06-22T17:22:38;1021.5;;;30.6;37.2
61880;BME280;47817;52.798;27.544;2023-06-22T17:26:49;1021.5;;;30.2;38
61880;BME280;47817;52.798;27.544;2023-06-22T17:31:48;1021.5;;;29.7;39.2
61880;BME280;47817;52.798;27.544;2023-06-22T17:37:33;1021.4;;;29.3;39.9
61880;BME280;47817;52.798;27.544;2023-06-22T17:42:32;1021.4;;;29.2;40.7
61880;BME280;47817;52.798;27.544;2023-06-22T17:47:23;1021.4;;;29.1;41.2
61880;BME280;47817;52.798;27.544;2023-06-22T17:52:08;1021.4;;;28.9;41.4
61880;BME280;47817;52.798;27.544;2023-06-22T17:57:40;1021.3;;;28.9;41.9
61880;BME280;47817;52.798;27.544;2023-06-22T18:01:56;1021.3;;;28.9;42.2
61880;BME280;47817;52.798;27.544;2023-06-22T18:06:56;1021.3;;;28.9;42.9
61880;BME280;47817;52.798;27.544;2023-06-22T18:12:40;1021.3;;;28.8;42.9
61880;BME280;47817;52.798;27.544;2023-06-22T18:17:32;1021.3;;;28.6;43.2
61880;BME280;47817;52.798;27.544;2023-06-22T18:21:49;1021.3;;;28.5;43.4
61880;BME280;47817;52.798;27.544;2023-06-22T18:26:56;1021.2;;;28.4;43.8
61880;BME280;47817;52.798;27.544;2023-06-22T18:31:57;1021.2;;;28.3;44.2
61880;BME280;47817;52.798;27.544;2023-06-22T18:36:49;1021.2;;;28.1;44.8
61880;BME280;47817;52.798;27.544;2023-06-22T18:41:50;1021.2;;;28;45.6
61880;BME280;47817;52.798;27.544;2023-06-22T18:47:39;1021.3;;;27.9;46.5
61880;BME280;47817;52.798;27.544;2023-06-22T18:51:52;1021.3;;;27.7;47.2
61880;BME280;47817;52.798;27.544;2023-06-22T18:57:39;1021.3;;;27.7;47.6
61880;BME280;47817;52.798;27.544;2023-06-22T19:01:50;1021.4;;;27.5;47.9
61880;BME280;47817;52.798;27.544;2023-06-22T19:06:56;1021.4;;;27.4;47.9
61880;BME280;47817;52.798;27.544;2023-06-22T19:12:28;1021.5;;;27.2;49.1
61880;BME280;47817;52.798;27.544;2023-06-22T19:16:56;1021.6;;;26.9;50.5
61880;BME280;47817;52.798;27.544;2023-06-22T19:22:09;1021.5;;;26.6;51.6
61880;BME280;47817;52.798;27.544;2023-06-22T19:27:19;1021.5;;;26.5;52.4
61880;BME280;47817;52.798;27.544;2023-06-22T19:32:19;1021.5;;;26.4;52.6
61880;BME280;47817;52.798;27.544;2023-06-22T19:36:59;1021.5;;;26.4;52.8
61880;BME280;47817;52.798;27.544;2023-06-22T19:41:57;1021.5;;;26.4;53.4
61880;BME280;47817;52.798;27.544;2023-06-22T19:47:37;1021.6;;;26.5;53.7
61880;BME280;47817;52.798;27.544;2023-06-22T19:52:37;1021.5;;;26.5;53.8
61880;BME280;47817;52.798;27.544;2023-06-22T19:57:09;1021.6;;;26.5;54
61880;BME280;47817;52.798;27.544;2023-06-22T20:02:19;1021.6;;;26.4;54.9
61880;BME280;47817;52.798;27.544;2023-06-22T20:07:37;1021.5;;;26.3;55.8
61880;BME280;47817;52.798;27.544;2023-06-22T20:11:57;1021.5;;;26.1;57.1
61880;BME280;47817;52.798;27.544;2023-06-22T20:16:49;1021.5;;;25.9;57.9
61880;BME280;47817;52.798;27.544;2023-06-22T20:22:03;1021.6;;;25.8;58.4
61880;BME280;47817;52.798;27.544;2023-06-22T20:27:41;1021.5;;;25.7;58.9
61880;BME280;47817;52.798;27.544;2023-06-22T20:32:45;1021.5;;;25.6;59.6
61880;BME280;47817;52.798;27.544;2023-06-22T20:37:05;1021.6;;;25.4;60.4
61880;BME280;47817;52.798;27.544;2023-06-22T20:42:37;1021.6;;;25.3;61.7
61880;BME280;47817;52.798;27.544;2023-06-22T20:46:49;1021.6;;;25.1;61.7
61880;BME280;47817;52.798;27.544;2023-06-22T20:52:21;1021.6;;;24.9;62.7
61880;BME280;47817;52.798;27.544;2023-06-22T20:57:13;1021.6;;;24.8;63.6
61880;BME280;47817;52.798;27.544;2023-06-22T21:02:39;1021.6;;;24.8;64.1
61880;BME280;47817;52.798;27.544;2023-06-22T21:07:29;1021.7;;;24.7;64.7
61880;BME280;47817;52.798;27.544;2023-06-22T21:12:25;1021.6;;;24.6;64.8
61880;BME280;47817;52.798;27.544;2023-06-22T21:17:15;1021.6;;;24.4;65.8
61880;BME280;47817;52.798;27.544;2023-06-22T21:22:09;1021.5;;;24.3;66.1
61880;BME280;47817;52.798;27.544;2023-06-22T21:27:39;1021.5;;;24.1;67.7
61880;BME280;47817;52.798;27.544;2023-06-22T21:32:07;1021.4;;;24;68
61880;BME280;47817;52.798;27.544;2023-06-22T21:37:01;1021.4;;;23.9;68.7
61880;BME280;47817;52.798;27.544;2023-06-22T21:42:37;1021.4;;;23.8;69.9
61880;BME280;47817;52.798;27.544;2023-06-22T21:47:31;1021.4;;;23.8;69.7
61880;BME280;47817;52.798;27.544;2023-06-22T21:52:07;1021.4;;;23.7;70.4
61880;BME280;47817;52.798;27.544;2023-06-22T21:56:57;1021.5;;;23.6;71.3
61880;BME280;47817;52.798;27.544;2023-06-22T22:02:27;1021.4;;;23.6;72.2
61880;BME280;47817;52.798;27.544;2023-06-22T22:07:29;1021.4;;;23.6;72.1
61880;BME280;47817;52.798;27.544;2023-06-22T22:12:09;1021.4;;;23.4;73.4
61880;BME280;47817;52.798;27.544;2023-06-22T22:16:57;1021.4;;;23.3;74.6
61880;BME280;47817;52.798;27.544;2023-06-22T22:22:37;1021.3;;;23.2;75.3
61880;BME280;47817;52.798;27.544;2023-06-22T22:26:49;1021.3;;;23.1;76.1
61880;BME280;47817;52.798;27.544;2023-06-22T22:31:49;1021.3;;;23.1;75.6
61880;BME280;47817;52.798;27.544;2023-06-22T22:37:23;1021.3;;;23.1;75.8
61880;BME280;47817;52.798;27.544;2023-06-22T22:42:17;1021.3;;;23;76.3
61880;BME280;47817;52.798;27.544;2023-06-22T22:47:09;1021.3;;;23;77.8
61880;BME280;47817;52.798;27.544;2023-06-22T22:51:49;1021.2;;;22.9;78
61880;BME280;47817;52.798;27.544;2023-06-22T22:57:05;1021.1;;;22.8;78.3
61880;BME280;47817;52.798;27.544;2023-06-22T23:01:57;1021.1;;;22.8;78.3
61880;BME280;47817;52.798;27.544;2023-06-22T23:07:07;1021.1;;;22.8;78.5
61880;BME280;47817;52.798;27.544;2023-06-22T23:12:37;1021.2;;;22.8;77.8
61880;BME280;47817;52.798;27.544;2023-06-22T23:17:19;1021.2;;;22.7;77.6
61880;BME280;47817;52.798;27.544;2023-06-22T23:22:39;1021.2;;;22.6;77.9
61880;BME280;47817;52.798;27.544;2023-06-22T23:26:57;1021.2;;;22.5;78.9
61880;BME280;47817;52.798;27.544;2023-06-22T23:32:11;1021.3;;;22.3;79.4
61880;BME280;47817;52.798;27.544;2023-06-22T23:37:09;1021.3;;;22.2;79.7
61880;BME280;47817;52.798;27.544;2023-06-22T23:42:23;1021.4;;;22.2;79.9
61880;BME280;47817;52.798;27.544;2023-06-22T23:46:57;1021.4;;;22.1;80.6
61880;BME280;47817;52.798;27.544;2023-06-22T23:52:19;1021.4;;;22.1;80.5
61880;BME280;47817;52.798;27.544;2023-06-22T23:57:19;1021.5;;;22;79.7
